Grantley Adams, Barbados

7:25 PM AST on August 20, 2014 (GMT -0400)
Foul Bay | Change Station
CLOSE
Current Station
Personal Weather Station
Location: St. Philip, .
Elevation: 115 ft
Nearby Weather Stations

Elev 115 ft 13.10 °N, 59.45 °W | Updated 15 seconds ago

Mostly Cloudy
Mostly Cloudy
86.7 °F
Feels Like 98 °F
N
0.7
Wind Variable Wind from West
Gusts 4.5 mph

Today
High -- | Low -- °F
--% Chance of Precip.
Yesterday
High -- | Low -- °F
Precip. -- in
5:46 AM 6:16 PM
Waning Crescent, 18% visible
Pressure 29.89 in
Visibility 6.2 miles
Clouds Scattered Clouds 1600 ft
Mostly Cloudy 28000 ft
Heat Index 98 °F
Dew Point 77 °F
Humidity 72%
Rainfall 0.11 in
Snow Depth Not available.
UV 0 out of 12
Pollen Not available.
Air Quality Not available.
Flu Activity Not available.
METAR TBPB 202300Z 06007KT 9999 SCT016 BKN280 28/25 Q1012 NOSIG

More Conditions Fewer Conditions

Pressure 29.89 in
Visibility 6.2 miles
Clouds Scattered Clouds 1600 ft
Mostly Cloudy 28000 ft
Heat Index 98 °F
Dew Point 77 °F
Humidity 72%
Rainfall 0.11 in
Snow Depth Not available.
UV 0 out of 12
Pollen Not available.
Air Quality Not available.
Flu Activity Not available.
METAR TBPB 202300Z 06007KT 9999 SCT016 BKN280 28/25 Q1012 NOSIG

More Conditions Fewer Conditions

10-Day Weather Forecast

Almanac

Astronomy

Aug. 20, 2014 Rise Set
Actual Time 5:46 AM AST 6:16 PM AST
Civil Twilight 5:24 AM AST 6:38 PM AST
Nautical Twilight 4:58 AM AST 7:03 PM AST
Astronomical Twilight 4:33 AM AST 7:29 PM AST
Moon 1:39 AM AST 2:40 PM AST
Length of Visible Light 13h 13m
Length of Day
12h 30m
Tomorrow will be 0m 39s shorter.
Waning Crescent, 18% of the Moon is Illuminated
Today
Waning Crescent
Aug 25
New
Sep 2
First Quarter
Sep 8
Full
Sep 15
Last Quarter

Today's Extremes

Country Highs Country Lows

Community

WunderPhotos

Upload Photos

1,745,798 photos uploaded!

Nearby

Snow Depth

Not available.

Earthquake Activity

City Distance Mag. Time & Date
No recent earthquake activity has been reported nearby.
Minimum magnitude displayed is 2.5.

Coastal Water Temperatures

Place Temperature
No Stations Reporting

Nearby Weather Stations